Latest Weather Observations for Kalgoorlie-Boulder

IDW60801

Issued at 10:03 am WST Friday 18 October 2019 (issued every 10 minutes, with the page automatically refreshed every 10 minutes)

About weather observations | Map of weather stations | Latest weather observations for WA | Other Formats
Station Details ID: 012038 Name: KALGOORLIE-BOULDER AIRPORT Lat: -30.78 Lon: 121.45 Height: 365.3 m
Data from the previous 72 hours. | See also: Recent months at Kalgoorlie-Boulder
Date/Time
WST
Temp
°C
App
Temp
°C
Dew
Point
°C
Rel
Hum
%
Delta-T
°C
Wind Press
QNH
hPa
Press
MSL
hPa
Rain since
9am
mm
Dir  Spd
km/h
Gust
km/h
Spd
kts
Gust
kts
18/10:00am 19.6 15.3 7.7 46 6.2 ESE 20 30 11 16 1020.9 1019.8 0.0
18/09:30am 18.8 14.3 8.5 51 5.4 SE 22 32 12 17 1021.1 1020.1 0.0
18/09:00am 17.8 12.9 8.4 54 4.9 SE 24 37 13 20 1021.3 1020.3 0.0
18/08:30am 17.1 11.8 8.5 57 4.5 SE 26 37 14 20 1021.4 1020.4 0.0
18/08:00am 16.3 11.3 8.0 58 4.3 SE 24 32 13 17 1021.3 1020.3 0.0
18/07:30am 15.5 9.8 8.3 62 3.7 SE 28 37 15 20 1021.3 1020.3 0.0
18/07:00am 15.0 10.1 8.3 64 3.4 SE 24 32 13 17 1021.1 1020.1 0.0
18/06:30am 14.0 8.6 8.2 68 3.0 ESE 26 37 14 20 1020.9 1019.8 0.0
18/06:00am 13.2 9.2 8.1 71 2.6 SE 19 28 10 15 1020.8 1019.7 0.0
18/05:30am 12.5 8.3 7.6 72 2.4 SE 19 28 10 15 1020.7 1019.6 0.0
18/05:00am 12.7 7.5 7.4 70 2.6 SE 24 35 13 19 1020.3 1019.2 0.0
18/04:30am 13.0 8.5 7.0 67 3.0 SSE 20 32 11 17 1019.9 1018.9 0.0
18/04:00am 13.7 8.8 5.1 56 4.1 SE 20 28 11 15 1019.5 1018.5 0.0
18/03:30am 14.1 9.3 4.4 52 4.6 SE 19 26 10 14 1019.2 1018.2 0.0
18/03:00am 14.7 10.4 5.2 53 4.6 SE 17 22 9 12 1018.7 1017.7 0.0
18/02:30am 15.3 10.0 5.2 51 4.9 SE 22 30 12 16 1018.3 1017.2 0.0
18/02:00am 15.7 10.8 5.3 50 5.0 SE 20 30 11 16 1017.9 1016.8 0.0
18/01:30am 16.1 11.4 5.1 48 5.3 SE 19 30 10 16 1017.6 1016.5 0.0
18/01:00am 16.7 11.7 4.7 45 5.8 SE 20 28 11 15 1017.7 1016.6 0.0
18/12:30am 17.4 12.3 3.3 39 6.6 SSE 19 33 10 18 1017.6 1016.5 0.0
18/12:00am 18.0 12.6 1.5 33 7.5 SSE 19 30 10 16 1017.8 1016.7 0.0
 
Date/Time
WST
Temp
°C
App
Temp
°C
Dew
Point
°C
Rel
Hum
%
Delta-T
°C
Wind Press
QNH
hPa
Press
MSL
hPa
Rain since
9am
mm
Dir  Spd
km/h
Gust
km/h
Spd
kts
Gust
kts
17/11:30pm 19.0 13.7 -0.4 27 8.6 SSE 17 24 9 13 1017.9 1016.8 0.0
17/11:00pm 19.7 13.7 -1.4 24 9.2 SSE 20 30 11 16 1018.1 1017.0 0.0
17/10:30pm 19.4 14.7 -1.7 24 9.1 SSE 13 17 7 9 1018.1 1017.0 0.0
17/10:00pm 19.0 14.6 -2.6 23 9.1 SSE 11 13 6 7 1018.2 1017.1 0.0
17/09:30pm 19.3 14.5 -2.9 22 9.4 S 13 15 7 8 1018.2 1017.1 0.0
17/09:00pm 19.8 15.3 -3.1 21 9.7 SSE 11 13 6 7 1018.0 1016.9 0.0
17/08:30pm 19.8 15.3 -3.1 21 9.7 SSE 11 13 6 7 1017.9 1016.8 0.0
17/08:00pm 20.3 16.2 -3.4 20 10.0 S 9 11 5 6 1017.8 1016.7 0.0
17/07:30pm 21.5 16.9 -3.8 18 10.7 SSW 11 15 6 8 1017.3 1016.3 0.0
17/07:00pm 21.8 18.1 -4.3 17 11.0 WSW 6 9 3 5 1016.9 1015.9 0.0
17/06:30pm 22.6 18.9 -4.5 16 11.4 SW 6 9 3 5 1016.6 1015.6 0.0
17/06:00pm 24.4 21.9 -3.9 15 12.3 CALM 0 6 0 3 1016.3 1015.3 0.0
17/05:30pm 25.7 21.9 -3.8 14 13.0 W 7 11 4 6 1016.1 1015.0 0.0
17/05:00pm 26.3 21.3 -4.3 13 13.4 WNW 13 20 7 11 1016.1 1015.0 0.0
17/04:30pm 26.3 22.4 -4.3 13 13.4 S 7 13 4 7 1016.1 1015.0 0.0
17/04:00pm 26.4 21.1 -3.2 14 13.2 N 15 20 8 11 1016.3 1015.3 0.0
17/03:30pm 25.9 21.0 -3.6 14 13.0 NW 13 22 7 12 1016.4 1015.4 0.0
17/03:00pm 26.3 20.1 -3.3 14 13.2 NW 20 32 11 17 1016.4 1015.4 0.0
17/02:30pm 27.0 23.3 -2.7 14 13.5 ENE 7 19 4 10 1016.7 1015.7 0.0
17/02:00pm 26.1 20.5 -2.5 15 12.9 NW 17 22 9 12 1017.3 1016.3 0.0
17/01:30pm 26.2 20.7 -2.4 15 12.9 WNW 17 30 9 16 1017.8 1016.7 0.0
17/01:00pm 25.2 19.8 -1.6 17 12.2 N 17 24 9 13 1018.3 1017.2 0.0
17/12:30pm 24.7 20.8 -1.2 18 11.8 WNW 9 15 5 8 1018.7 1017.7 0.0
17/12:00pm 25.2 19.6 0.0 19 11.8 WNW 19 28 10 15 1019.1 1018.1 0.0
17/11:30am 24.9 20.4 -0.3 19 11.7 NNW 13 20 7 11 1019.5 1018.5 0.0
17/11:00am 23.2 19.0 1.5 24 10.3 NW 13 24 7 13 1019.9 1018.9 0.0
17/10:30am 22.3 18.2 2.4 27 9.6 N 13 22 7 12 1020.6 1019.5 0.0
17/10:00am 21.4 17.5 3.6 31 8.7 N 13 19 7 10 1021.0 1020.0 0.0
17/09:30am 20.0 16.2 3.7 34 7.9 NNE 13 20 7 11 1021.2 1020.2 0.0
17/09:00am 18.6 14.7 3.6 37 7.2 NNE 13 19 7 10 1021.4 1020.4 0.0
17/08:30am 17.4 14.1 4.4 42 6.3 NNE 11 22 6 12 1021.4 1020.4 0.0
17/08:00am 16.5 12.8 4.2 44 5.8 NE 13 20 7 11 1021.2 1020.2 0.0
17/07:30am 15.2 10.4 4.6 49 5.0 NE 19 24 10 13 1021.2 1020.2 0.0
17/07:00am 13.6 9.9 4.2 53 4.4 ENE 13 20 7 11 1021.2 1020.2 0.0
17/06:30am 12.1 8.3 3.9 57 3.8 ESE 13 19 7 10 1021.1 1020.1 0.0
17/06:00am 10.6 7.6 4.1 64 2.9 SE 9 13 5 7 1021.0 1020.0 0.0
17/05:30am 9.3 6.2 3.7 68 2.5 SE 9 11 5 6 1020.9 1019.8 0.0
17/05:00am 9.3 5.4 3.5 67 2.6 SE 13 13 7 7 1020.8 1019.7 0.0
17/04:30am 9.5 6.1 3.9 68 2.5 ESE 11 15 6 8 1020.6 1019.5 0.0
17/04:00am 9.9 6.5 4.1 67 2.6 ESE 11 13 6 7 1020.5 1019.4 0.0
17/03:30am 10.6 6.5 4.5 66 2.8 ESE 15 17 8 9 1020.4 1019.3 0.0
17/03:00am 10.5 7.5 4.2 65 2.9 ESE 9 11 5 6 1020.4 1019.3 0.0
17/02:30am 10.7 7.3 4.0 63 3.0 ESE 11 13 6 7 1020.4 1019.3 0.0
17/02:00am 11.8 8.1 4.5 61 3.4 ESE 13 17 7 9 1020.6 1019.5 0.0
17/01:30am 12.0 8.6 4.2 59 3.6 SE 11 13 6 7 1020.8 1019.7 0.0
17/01:00am 12.1 8.3 3.9 57 3.7 ESE 13 15 7 8 1021.0 1020.0 0.0
17/12:30am 13.2 9.4 3.8 53 4.3 ESE 13 17 7 9 1021.3 1020.3 0.0
17/12:00am 13.7 9.4 3.5 50 4.7 SE 15 19 8 10 1021.6 1020.6 0.0
 
Date/Time
WST
Temp
°C
App
Temp
°C
Dew
Point
°C
Rel
Hum
%
Delta-T
°C
Wind Press
QNH
hPa
Press
MSL
hPa
Rain since
9am
mm
Dir  Spd
km/h
Gust
km/h
Spd
kts
Gust
kts
16/11:30pm 14.3 10.0 3.5 48 5.0 SE 15 20 8 11 1021.8 1020.8 0.0
16/11:00pm 14.8 10.4 2.7 44 5.5 SE 15 19 8 10 1021.9 1020.9 0.0
16/10:30pm 15.5 10.2 2.0 40 6.1 SE 19 24 10 13 1021.9 1020.9 0.0
16/10:00pm 16.1 11.4 0.7 35 6.8 SE 15 22 8 12 1021.9 1020.9 0.0
16/09:30pm 16.5 12.1 0.6 34 7.0 SSE 13 19 7 10 1021.8 1020.8 0.0
16/09:00pm 16.1 14.2 0.7 35 6.8 CALM 0 0 0 0 1021.7 1020.7 0.0
16/08:30pm 17.0 13.8 0.6 33 7.3 E 7 9 4 5 1021.7 1020.7 0.0
16/08:00pm 17.7 13.7 0.8 32 7.6 ESE 11 15 6 8 1021.5 1020.5 0.0
16/07:30pm 18.5 13.8 0.6 30 8.1 ESE 15 19 8 10 1021.4 1020.4 0.0
16/07:00pm 18.2 15.4 -0.6 28 8.2 SE 4 9 2 5 1021.2 1020.2 0.0
16/06:30pm 19.9 16.8 0.4 27 8.8 ENE 6 7 3 4 1021.1 1020.1 0.0
16/06:00pm 20.5 16.9 0.4 26 9.1 E 9 11 5 6 1021.0 1020.0 0.0
16/05:30pm 21.4 17.7 0.0 24 9.8 S 9 15 5 8 1020.8 1019.7 0.0
16/05:00pm 21.9 18.3 0.4 24 9.9 SSE 9 15 5 8 1020.7 1019.6 0.0
16/04:30pm 22.1 17.6 0.0 23 10.1 SE 13 24 7 13 1020.6 1019.5 0.0
16/04:00pm 21.9 18.3 0.4 24 9.9 SSW 9 15 5 8 1020.7 1019.6 0.0
16/03:30pm 22.2 17.9 1.3 25 9.8 S 13 30 7 16 1020.8 1019.7 0.0
16/03:00pm 21.3 17.8 1.0 26 9.4 E 9 15 5 8 1021.0 1020.0 0.0
16/02:30pm 21.6 17.6 0.8 25 9.6 S 11 28 6 15 1021.2 1020.2 0.0
16/02:00pm 21.4 17.6 1.7 27 9.2 S 11 19 6 10 1021.5 1020.5 0.0
16/01:30pm 21.1 17.2 1.4 27 9.2 WSW 11 22 6 12 1021.7 1020.7 0.0
16/01:00pm 20.7 16.9 2.0 29 8.8 NNW 11 17 6 9 1022.0 1021.0 0.0
16/12:30pm 20.4 17.5 2.7 31 8.4 SSE 7 15 4 8 1022.3 1021.3 0.0
16/12:00pm 19.4 16.1 2.3 32 8.0 SSE 9 19 5 10 1022.6 1021.6 0.0
16/11:30am 19.5 16.2 2.4 32 8.0 NW 9 17 5 9 1023.2 1022.1 0.0
16/11:00am 18.1 14.9 3.2 37 7.0 WNW 9 15 5 8 1023.4 1022.4 0.0
16/10:30am 17.2 14.1 3.8 41 6.4 SSE 9 17 5 9 1023.8 1022.8 0.0
16/10:00am 17.5 14.2 4.8 43 6.1 SSE 11 19 6 10 1024.0 1023.0 0.0
16/09:30am 16.5 13.6 4.9 46 5.6 E 9 17 5 9 1024.3 1023.3 0.0
16/09:00am 16.0 12.2 5.6 50 5.1 ESE 15 24 8 13 1024.5 1023.5 0.0
16/08:30am 14.9 10.6 5.4 53 4.6 ESE 17 24 9 13 1024.6 1023.6 0.0
16/08:00am 14.1 9.5 5.5 56 4.1 SE 19 28 10 15 1024.4 1023.4 0.0
16/07:30am 13.5 9.3 5.9 60 3.7 ESE 17 20 9 11 1024.2 1023.2 0.0
16/07:00am 13.1 8.9 5.5 60 3.6 ESE 17 20 9 11 1024.2 1023.2 0.0
16/06:30am 11.9 8.6 4.4 60 3.5 ESE 11 15 6 8 1024.0 1023.0 0.0
16/06:00am 10.8 8.3 4.5 65 2.9 SE 7 9 4 5 1023.7 1022.7 0.0
16/05:30am 9.1 6.4 3.9 70 2.3 ESE 7 9 4 5 1023.5 1022.5 0.0
16/05:00am 8.7 5.6 3.5 70 2.3 SE 9 11 5 6 1023.3 1022.2 0.0
16/04:30am 10.0 6.6 4.2 67 2.6 SE 11 15 6 8 1023.2 1022.1 0.0
16/04:00am 10.6 6.9 4.3 65 2.9 SSE 13 19 7 10 1022.8 1021.8 0.0
16/03:30am 10.6 6.7 3.4 61 3.2 SE 13 17 7 9 1022.5 1021.5 0.0
16/03:00am 11.1 7.6 3.6 60 3.4 SSE 11 15 6 8 1022.3 1021.3 0.0
16/02:30am 11.7 7.2 4.0 59 3.5 SE 17 26 9 14 1022.0 1021.0 0.0
16/02:00am 12.0 7.4 3.8 57 3.7 SE 17 22 9 12 1022.0 1021.0 0.0
16/01:30am 12.4 7.8 3.6 55 4.0 SSE 17 24 9 13 1021.9 1020.9 0.0
16/01:00am 12.6 8.4 1.9 48 4.7 SSE 13 19 7 10 1021.9 1020.9 0.0
16/12:30am 12.8 8.5 1.2 45 5.0 SSE 13 17 7 9 1021.9 1020.9 0.0
16/12:00am 13.7 9.4 0.7 41 5.6 SSE 13 19 7 10 1021.9 1020.9 0.0
 
Date/Time
WST
Temp
°C
App
Temp
°C
Dew
Point
°C
Rel
Hum
%
Delta-T
°C
Wind Press
QNH
hPa
Press
MSL
hPa
Rain since
9am
mm
Dir  Spd
km/h
Gust
km/h
Spd
kts
Gust
kts
15/11:30pm 14.4 9.6 -0.1 37 6.2 SSE 15 24 8 13 1021.5 1020.5 0.0
15/11:00pm 13.3 8.6 -1.8 35 6.1 S 13 17 7 9 1021.2 1020.2 0.0
15/10:30pm 13.4 8.7 -2.1 34 6.3 SSW 13 15 7 8 1021.0 1020.0 0.0
15/10:00pm 13.9 9.1 -2.5 32 6.6 S 13 15 7 8 1021.0 1020.0 0.0
15/09:30pm 15.2 10.4 -2.2 30 7.2 S 13 19 7 10 1021.1 1020.1 0.0
15/09:00pm 16.1 11.0 -1.9 29 7.5 S 15 17 8 9 1020.9 1019.8 0.0
15/08:30pm 16.4 11.7 -1.7 29 7.6 SSE 13 17 7 9 1020.8 1019.7 0.0
15/08:00pm 17.0 11.9 -1.6 28 7.9 S 15 19 8 10 1020.5 1019.4 0.0
15/07:30pm 17.0 12.8 -1.1 29 7.8 S 11 17 6 9 1020.0 1019.0 0.0
15/07:00pm 17.9 13.3 -1.3 27 8.2 S 13 17 7 9 1019.6 1018.6 0.0
15/06:30pm 18.9 13.6 -0.5 27 8.6 S 17 24 9 13 1019.1 1018.1 0.0
15/06:00pm 19.6 14.3 -0.4 26 8.9 S 17 26 9 14 1018.8 1017.8 0.0
15/05:30pm 20.4 15.1 -0.8 24 9.4 SSW 17 24 9 13 1018.4 1017.3 0.0
15/05:00pm 20.9 14.2 -1.0 23 9.7 SSW 24 35 13 19 1018.0 1016.9 0.0
15/04:30pm 21.6 15.8 -0.4 23 10.0 SSW 20 33 11 18 1017.7 1016.6 0.0
15/04:00pm 21.6 15.9 -0.4 23 9.9 SSW 19 32 10 17 1017.5 1016.4 0.0
15/03:30pm 21.2 15.7 0.4 25 9.5 S 19 32 10 17 1017.2 1016.2 0.0
15/03:00pm 22.2 15.6 -0.5 22 10.3 SW 24 33 13 18 1017.2 1016.2 0.0
15/02:30pm 21.7 15.5 -0.3 23 10.0 SSW 22 33 12 18 1017.3 1016.3 0.0
15/02:00pm 21.9 16.3 1.0 25 9.7 SW 20 39 11 21 1017.5 1016.4 0.0
15/01:30pm 21.9 16.6 1.6 26 9.6 S 19 32 10 17 1017.7 1016.6 0.0
15/01:00pm 20.7 15.7 1.6 28 8.9 SSW 17 33 9 18 1018.1 1017.0 0.0
15/12:30pm 19.8 14.3 0.3 27 8.8 SW 19 32 10 17 1018.5 1017.4 0.0
15/12:26pm 20.3 15.3 1.2 28 8.8 SSW 17 32 9 17 1018.5 1017.4 0.0
15/12:11pm 19.5 13.9 1.0 29 8.5 WSW 20 32 11 17 1018.7 1017.7 0.0
15/12:00pm 20.6 14.5 0.4 26 9.2 SW 22 35 12 19 1018.8 1017.8 0.0
15/11:30am 19.2 14.3 1.7 31 8.1 WSW 17 28 9 15 1019.1 1018.1 0.0
15/11:00am 19.5 15.4 2.4 32 8.0 S 13 24 7 13 1019.5 1018.5 0.0
15/10:30am 17.8 12.9 2.2 35 7.2 SSW 17 28 9 15 1019.8 1018.8 0.0

Other formats

Comma delimited format used in spreadsheet applications
http://www.bom.gov.au/fwo/IDW60801/IDW60801.94637.axf

JavaScript Object Notation format (JSON) in row-major order
http://www.bom.gov.au/fwo/IDW60801/IDW60801.94637.json

Data quality

Most of these data are generated automatically and are frequently updated. Quality checks on data are not normally performed. It is possible for incorrect values to appear. Refer to information at About Latest Weather Observations and please check the disclaimer before using these data.